sensor_id;sensor_type;location;lat;lon;timestamp;pressure;altitude;pressure_sealevel;temperature;humidity
49541;BME280;35432;43.566;1.398;2023-04-07T00:00:22;100218.94;;;10.12;51.20
49541;BME280;35432;43.566;1.398;2023-04-07T00:02:48;100222.47;;;10.08;51.33
49541;BME280;35432;43.566;1.398;2023-04-07T00:05:13;100219.84;;;10.03;51.31
49541;BME280;35432;43.566;1.398;2023-04-07T00:07:39;100222.47;;;9.98;51.74
49541;BME280;35432;43.566;1.398;2023-04-07T00:10:06;100220.72;;;9.94;51.62
49541;BME280;35432;43.566;1.398;2023-04-07T00:12:32;100216.34;;;9.88;51.84
49541;BME280;35432;43.566;1.398;2023-04-07T00:14:58;100219.88;;;9.86;51.96
49541;BME280;35432;43.566;1.398;2023-04-07T00:17:23;100212.88;;;9.82;51.86
49541;BME280;35432;43.566;1.398;2023-04-07T00:19:48;100210.25;;;9.79;52.07
49541;BME280;35432;43.566;1.398;2023-04-07T00:22:14;100208.50;;;9.71;52.29
49541;BME280;35432;43.566;1.398;2023-04-07T00:24:40;100213.78;;;9.67;52.21
49541;BME280;35432;43.566;1.398;2023-04-07T00:27:05;100212.03;;;9.64;52.33
49541;BME280;35432;43.566;1.398;2023-04-07T00:29:30;100213.78;;;9.62;52.51
49541;BME280;35432;43.566;1.398;2023-04-07T00:31:56;100215.53;;;9.57;52.74
49541;BME280;35432;43.566;1.398;2023-04-07T00:34:21;100214.66;;;9.53;52.87
49541;BME280;35432;43.566;1.398;2023-04-07T00:36:47;100209.38;;;9.48;52.67
49541;BME280;35432;43.566;1.398;2023-04-07T00:39:17;100208.53;;;9.46;52.80
49541;BME280;35432;43.566;1.398;2023-04-07T00:41:43;100199.75;;;9.41;52.69
49541;BME280;35432;43.566;1.398;2023-04-07T00:44:09;100198.88;;;9.38;52.89
49541;BME280;35432;43.566;1.398;2023-04-07T00:46:34;100198.88;;;9.34;52.87
49541;BME280;35432;43.566;1.398;2023-04-07T00:49:00;100190.13;;;9.32;52.92
49541;BME280;35432;43.566;1.398;2023-04-07T00:51:25;100188.38;;;9.33;52.94
49541;BME280;35432;43.566;1.398;2023-04-07T00:53:51;100185.75;;;9.31;52.83
49541;BME280;35432;43.566;1.398;2023-04-07T00:56:16;100185.78;;;9.30;53.07
49541;BME280;35432;43.566;1.398;2023-04-07T00:58:42;100182.25;;;9.25;53.05
49541;BME280;35432;43.566;1.398;2023-04-07T01:01:11;100186.63;;;9.16;53.23
49541;BME280;35432;43.566;1.398;2023-04-07T01:03:48;100181.34;;;9.04;53.96
49541;BME280;35432;43.566;1.398;2023-04-07T01:06:19;100183.97;;;8.95;54.30
49541;BME280;35432;43.566;1.398;2023-04-07T01:08:52;100177.84;;;8.88;53.70
49541;BME280;35432;43.566;1.398;2023-04-07T01:11:27;100172.59;;;8.85;54.42
49541;BME280;35432;43.566;1.398;2023-04-07T01:13:53;100177.84;;;8.80;54.22
49541;BME280;35432;43.566;1.398;2023-04-07T01:16:25;100174.31;;;8.75;54.53
49541;BME280;35432;43.566;1.398;2023-04-07T01:18:53;100169.94;;;8.71;54.19
49541;BME280;35432;43.566;1.398;2023-04-07T01:21:21;100166.44;;;8.66;54.18
49541;BME280;35432;43.566;1.398;2023-04-07T01:26:33;100155.06;;;8.60;54.33
49541;BME280;35432;43.566;1.398;2023-04-07T01:29:06;100161.19;;;8.63;54.22
49541;BME280;35432;43.566;1.398;2023-04-07T01:31:38;100162.94;;;8.60;54.44
49541;BME280;35432;43.566;1.398;2023-04-07T01:34:05;100159.41;;;8.54;54.17
49541;BME280;35432;43.566;1.398;2023-04-07T01:36:32;100159.34;;;8.46;54.53
49541;BME280;35432;43.566;1.398;2023-04-07T01:39:01;100160.22;;;8.42;54.83
49541;BME280;35432;43.566;1.398;2023-04-07T01:41:27;100159.31;;;8.38;54.61
49541;BME280;35432;43.566;1.398;2023-04-07T01:43:55;100154.09;;;8.40;54.57
49541;BME280;35432;43.566;1.398;2023-04-07T01:46:20;100161.09;;;8.41;54.62
49541;BME280;35432;43.566;1.398;2023-04-07T01:48:47;100153.22;;;8.41;55.00
49541;BME280;35432;43.566;1.398;2023-04-07T01:51:13;100153.19;;;8.42;54.65
49541;BME280;35432;43.566;1.398;2023-04-07T01:53:44;100146.22;;;8.40;54.34
49541;BME280;35432;43.566;1.398;2023-04-07T01:56:10;100149.69;;;8.37;54.29
49541;BME280;35432;43.566;1.398;2023-04-07T01:58:35;100140.94;;;8.33;54.77
49541;BME280;35432;43.566;1.398;2023-04-07T02:01:01;100153.16;;;8.31;54.52
49541;BME280;35432;43.566;1.398;2023-04-07T02:03:30;100148.78;;;8.30;54.65
49541;BME280;35432;43.566;1.398;2023-04-07T02:06:06;100154.03;;;8.27;55.28
49541;BME280;35432;43.566;1.398;2023-04-07T02:08:35;100150.53;;;8.25;55.02
49541;BME280;35432;43.566;1.398;2023-04-07T02:11:01;100146.16;;;8.21;55.07
49541;BME280;35432;43.566;1.398;2023-04-07T02:13:28;100140.88;;;8.18;54.98
49541;BME280;35432;43.566;1.398;2023-04-07T02:15:55;100140.00;;;8.13;55.17
49541;BME280;35432;43.566;1.398;2023-04-07T02:18:22;100146.13;;;8.12;54.72
49541;BME280;35432;43.566;1.398;2023-04-07T02:20:51;100140.84;;;8.10;54.84
49541;BME280;35432;43.566;1.398;2023-04-07T02:23:17;100137.34;;;8.07;54.97
49541;BME280;35432;43.566;1.398;2023-04-07T02:25:42;100136.44;;;8.01;55.14
49541;BME280;35432;43.566;1.398;2023-04-07T02:28:08;100137.31;;;7.96;55.61
49541;BME280;35432;43.566;1.398;2023-04-07T02:30:34;100139.03;;;7.94;55.02
49541;BME280;35432;43.566;1.398;2023-04-07T02:33:00;100139.91;;;7.88;55.29
49541;BME280;35432;43.566;1.398;2023-04-07T02:35:26;100138.97;;;7.83;55.61
49541;BME280;35432;43.566;1.398;2023-04-07T02:37:51;100133.72;;;7.78;55.66
49541;BME280;35432;43.566;1.398;2023-04-07T02:40:17;100138.97;;;7.75;56.71
49541;BME280;35432;43.566;1.398;2023-04-07T02:42:43;100134.53;;;7.66;56.55
49541;BME280;35432;43.566;1.398;2023-04-07T02:45:09;100131.00;;;7.63;56.30
49541;BME280;35432;43.566;1.398;2023-04-07T02:47:35;100133.63;;;7.63;56.35
49541;BME280;35432;43.566;1.398;2023-04-07T02:50:01;100131.03;;;7.61;56.57
49541;BME280;35432;43.566;1.398;2023-04-07T02:52:26;100127.47;;;7.54;56.81
49541;BME280;35432;43.566;1.398;2023-04-07T02:54:52;100122.22;;;7.48;56.83
49541;BME280;35432;43.566;1.398;2023-04-07T02:57:17;100123.94;;;7.47;56.90
49541;BME280;35432;43.566;1.398;2023-04-07T02:59:43;100122.19;;;7.46;56.81
49541;BME280;35432;43.566;1.398;2023-04-07T03:02:08;100124.78;;;7.43;56.90
49541;BME280;35432;43.566;1.398;2023-04-07T03:04:34;100125.63;;;7.39;56.89
49541;BME280;35432;43.566;1.398;2023-04-07T03:06:59;100122.09;;;7.34;57.61
49541;BME280;35432;43.566;1.398;2023-04-07T03:09:25;100127.28;;;7.28;57.66
49541;BME280;35432;43.566;1.398;2023-04-07T03:11:51;100129.03;;;7.26;57.05
49541;BME280;35432;43.566;1.398;2023-04-07T03:14:16;100127.28;;;7.28;57.15
49541;BME280;35432;43.566;1.398;2023-04-07T03:16:42;100118.59;;;7.32;57.28
49541;BME280;35432;43.566;1.398;2023-04-07T03:19:08;100119.47;;;7.34;57.23
49541;BME280;35432;43.566;1.398;2023-04-07T03:21:35;100118.59;;;7.35;57.43
49541;BME280;35432;43.566;1.398;2023-04-07T03:24:01;100114.22;;;7.34;57.05
49541;BME280;35432;43.566;1.398;2023-04-07T03:26:26;100122.94;;;7.33;57.45
49541;BME280;35432;43.566;1.398;2023-04-07T03:28:52;100125.56;;;7.30;57.38
49541;BME280;35432;43.566;1.398;2023-04-07T03:31:17;100115.09;;;7.30;56.88
49541;BME280;35432;43.566;1.398;2023-04-07T03:33:43;100116.81;;;7.28;57.43
49541;BME280;35432;43.566;1.398;2023-04-07T03:36:08;100116.78;;;7.22;57.35
49541;BME280;35432;43.566;1.398;2023-04-07T03:38:33;100115.84;;;7.13;57.50
49541;BME280;35432;43.566;1.398;2023-04-07T03:40:59;100114.94;;;7.10;58.00
49541;BME280;35432;43.566;1.398;2023-04-07T03:43:24;100106.19;;;7.09;57.68
49541;BME280;35432;43.566;1.398;2023-04-07T03:45:52;100104.47;;;7.10;57.84
49541;BME280;35432;43.566;1.398;2023-04-07T03:48:17;100107.09;;;7.10;57.89
49541;BME280;35432;43.566;1.398;2023-04-07T03:50:44;100106.19;;;7.08;57.87
49541;BME280;35432;43.566;1.398;2023-04-07T03:53:10;100102.69;;;7.04;57.90
49541;BME280;35432;43.566;1.398;2023-04-07T03:55:38;100098.28;;;7.00;58.16
49541;BME280;35432;43.566;1.398;2023-04-07T03:58:03;100101.72;;;6.93;58.76
49541;BME280;35432;43.566;1.398;2023-04-07T04:00:29;100098.19;;;6.89;58.26
49541;BME280;35432;43.566;1.398;2023-04-07T04:02:57;100092.91;;;6.80;58.96
49541;BME280;35432;43.566;1.398;2023-04-07T04:05:22;100102.44;;;6.73;58.93
49541;BME280;35432;43.566;1.398;2023-04-07T04:07:48;100100.69;;;6.72;58.84
49541;BME280;35432;43.566;1.398;2023-04-07T04:10:15;100098.91;;;6.71;59.67
49541;BME280;35432;43.566;1.398;2023-04-07T04:12:40;100095.41;;;6.69;59.67
49541;BME280;35432;43.566;1.398;2023-04-07T04:15:06;100091.94;;;6.70;58.90
49541;BME280;35432;43.566;1.398;2023-04-07T04:17:32;100094.56;;;6.70;58.98
49541;BME280;35432;43.566;1.398;2023-04-07T04:19:57;100094.53;;;6.68;59.64
49541;BME280;35432;43.566;1.398;2023-04-07T04:22:22;100097.13;;;6.64;58.93
49541;BME280;35432;43.566;1.398;2023-04-07T04:24:48;100098.78;;;6.58;59.20
49541;BME280;35432;43.566;1.398;2023-04-07T04:27:13;100090.00;;;6.50;60.15
49541;BME280;35432;43.566;1.398;2023-04-07T04:29:39;100089.94;;;6.44;60.13
49541;BME280;35432;43.566;1.398;2023-04-07T04:32:04;100088.16;;;6.40;60.11
49541;BME280;35432;43.566;1.398;2023-04-07T04:34:30;100085.47;;;6.34;60.44
49541;BME280;35432;43.566;1.398;2023-04-07T04:36:55;100080.22;;;6.29;60.31
49541;BME280;35432;43.566;1.398;2023-04-07T04:39:20;100083.66;;;6.26;60.78
49541;BME280;35432;43.566;1.398;2023-04-07T04:41:46;100082.81;;;6.30;60.41
49541;BME280;35432;43.566;1.398;2023-04-07T04:44:11;100090.72;;;6.35;59.67
49541;BME280;35432;43.566;1.398;2023-04-07T04:46:37;100086.34;;;6.32;59.98
49541;BME280;35432;43.566;1.398;2023-04-07T04:49:02;100075.88;;;6.31;60.40
49541;BME280;35432;43.566;1.398;2023-04-07T04:51:28;100076.72;;;6.30;60.00
49541;BME280;35432;43.566;1.398;2023-04-07T04:53:53;100082.81;;;6.27;60.19
49541;BME280;35432;43.566;1.398;2023-04-07T04:56:19;100082.75;;;6.21;61.10
49541;BME280;35432;43.566;1.398;2023-04-07T04:58:45;100086.13;;;6.14;61.01
49541;BME280;35432;43.566;1.398;2023-04-07T05:01:11;100075.59;;;6.08;60.62
49541;BME280;35432;43.566;1.398;2023-04-07T05:03:37;100081.66;;;6.03;60.55
49541;BME280;35432;43.566;1.398;2023-04-07T05:06:03;100089.50;;;6.03;61.18
49541;BME280;35432;43.566;1.398;2023-04-07T05:08:28;100088.66;;;6.05;60.40
49541;BME280;35432;43.566;1.398;2023-04-07T05:10:53;100092.97;;;6.02;61.19
49541;BME280;35432;43.566;1.398;2023-04-07T05:13:20;100095.50;;;5.98;61.04
49541;BME280;35432;43.566;1.398;2023-04-07T05:15:45;100096.38;;;5.95;60.67
49541;BME280;35432;43.566;1.398;2023-04-07T05:18:11;100098.09;;;5.93;61.13
49541;BME280;35432;43.566;1.398;2023-04-07T05:20:36;100105.03;;;5.91;61.01
49541;BME280;35432;43.566;1.398;2023-04-07T05:23:02;100106.75;;;5.91;60.87
49541;BME280;35432;43.566;1.398;2023-04-07T05:25:28;100107.69;;;5.94;61.26
49541;BME280;35432;43.566;1.398;2023-04-07T05:27:53;100115.56;;;5.99;60.82
49541;BME280;35432;43.566;1.398;2023-04-07T05:30:18;100129.59;;;6.02;60.55
49541;BME280;35432;43.566;1.398;2023-04-07T05:32:44;100124.34;;;6.02;61.03
49541;BME280;35432;43.566;1.398;2023-04-07T05:35:10;100122.53;;;5.98;60.38
49541;BME280;35432;43.566;1.398;2023-04-07T05:37:35;100124.25;;;5.98;60.84
49541;BME280;35432;43.566;1.398;2023-04-07T05:40:00;100126.91;;;5.99;60.91
49541;BME280;35432;43.566;1.398;2023-04-07T05:42:26;100133.88;;;6.00;61.00
49541;BME280;35432;43.566;1.398;2023-04-07T05:44:51;100131.22;;;5.99;60.51
49541;BME280;35432;43.566;1.398;2023-04-07T05:47:17;100135.59;;;6.00;60.29
49541;BME280;35432;43.566;1.398;2023-04-07T05:49:42;100132.16;;;6.01;60.71
49541;BME280;35432;43.566;1.398;2023-04-07T05:52:13;100131.34;;;6.03;61.07
49541;BME280;35432;43.566;1.398;2023-04-07T05:54:39;100130.50;;;6.06;60.22
49541;BME280;35432;43.566;1.398;2023-04-07T05:57:05;100133.25;;;6.18;60.44
49541;BME280;35432;43.566;1.398;2023-04-07T05:59:31;100133.53;;;6.42;59.78
49541;BME280;35432;43.566;1.398;2023-04-07T06:01:57;100136.31;;;6.59;59.25
49541;BME280;35432;43.566;1.398;2023-04-07T06:04:23;100133.81;;;6.70;58.46
49541;BME280;35432;43.566;1.398;2023-04-07T06:06:48;100129.56;;;6.83;58.72
49541;BME280;35432;43.566;1.398;2023-04-07T06:09:13;100129.69;;;7.00;58.08
49541;BME280;35432;43.566;1.398;2023-04-07T06:11:39;100134.22;;;7.16;57.79
49541;BME280;35432;43.566;1.398;2023-04-07T06:14:04;100140.50;;;7.45;57.27
49541;BME280;35432;43.566;1.398;2023-04-07T06:16:30;100133.72;;;7.76;56.96
49541;BME280;35432;43.566;1.398;2023-04-07T06:18:55;100139.09;;;8.08;56.07
49541;BME280;35432;43.566;1.398;2023-04-07T06:21:20;100142.69;;;8.30;55.57
49541;BME280;35432;43.566;1.398;2023-04-07T06:23:47;100141.84;;;8.48;55.25
49541;BME280;35432;43.566;1.398;2023-04-07T06:26:12;100141.91;;;8.59;55.05
49541;BME280;35432;43.566;1.398;2023-04-07T06:28:38;100139.31;;;8.78;55.03
49541;BME280;35432;43.566;1.398;2023-04-07T06:31:04;100138.44;;;9.02;54.48
49541;BME280;35432;43.566;1.398;2023-04-07T06:33:30;100151.59;;;9.25;54.15
49541;BME280;35432;43.566;1.398;2023-04-07T06:35:55;100146.31;;;9.42;53.96
49541;BME280;35432;43.566;1.398;2023-04-07T06:38:21;100146.31;;;9.53;53.42
49541;BME280;35432;43.566;1.398;2023-04-07T06:40:47;100152.44;;;9.57;53.35
49541;BME280;35432;43.566;1.398;2023-04-07T06:43:12;100147.16;;;9.63;53.54
49541;BME280;35432;43.566;1.398;2023-04-07T06:45:37;100146.28;;;9.62;53.41
49541;BME280;35432;43.566;1.398;2023-04-07T06:48:03;100150.69;;;9.56;53.79
49541;BME280;35432;43.566;1.398;2023-04-07T06:50:28;100152.47;;;9.54;53.99
49541;BME280;35432;43.566;1.398;2023-04-07T06:52:54;100159.44;;;9.61;53.92
49541;BME280;35432;43.566;1.398;2023-04-07T06:55:19;100166.44;;;9.68;53.85
49541;BME280;35432;43.566;1.398;2023-04-07T06:57:44;100165.53;;;9.72;53.79
49541;BME280;35432;43.566;1.398;2023-04-07T07:00:10;100162.03;;;9.83;53.90
49541;BME280;35432;43.566;1.398;2023-04-07T07:02:36;100165.50;;;9.96;53.88
49541;BME280;35432;43.566;1.398;2023-04-07T07:05:01;100159.34;;;10.01;53.74
49541;BME280;35432;43.566;1.398;2023-04-07T07:07:29;100158.44;;;10.04;53.79
49541;BME280;35432;43.566;1.398;2023-04-07T07:09:54;100164.56;;;10.11;53.71
49541;BME280;35432;43.566;1.398;2023-04-07T07:12:20;100160.09;;;10.31;53.42
49541;BME280;35432;43.566;1.398;2023-04-07T07:14:45;100160.91;;;10.40;53.21
49541;BME280;35432;43.566;1.398;2023-04-07T07:17:11;100161.81;;;10.42;52.88
49541;BME280;35432;43.566;1.398;2023-04-07T07:19:37;100159.19;;;10.42;53.17
49541;BME280;35432;43.566;1.398;2023-04-07T07:22:03;100153.91;;;10.39;53.42
49541;BME280;35432;43.566;1.398;2023-04-07T07:24:29;100155.69;;;10.37;53.31
49541;BME280;35432;43.566;1.398;2023-04-07T07:26:55;100163.53;;;10.46;53.07
49541;BME280;35432;43.566;1.398;2023-04-07T07:29:21;100160.88;;;10.58;53.37
49541;BME280;35432;43.566;1.398;2023-04-07T07:31:46;100154.66;;;10.66;53.18
49541;BME280;35432;43.566;1.398;2023-04-07T07:34:12;100157.13;;;10.95;53.34
49541;BME280;35432;43.566;1.398;2023-04-07T07:36:37;100159.53;;;11.25;52.68
49541;BME280;35432;43.566;1.398;2023-04-07T07:39:03;100149.69;;;11.42;52.01
49541;BME280;35432;43.566;1.398;2023-04-07T07:41:29;100147.72;;;11.63;51.81
49541;BME280;35432;43.566;1.398;2023-04-07T07:43:55;100150.97;;;11.87;51.39
49541;BME280;35432;43.566;1.398;2023-04-07T07:46:20;100148.13;;;12.09;51.26
49541;BME280;35432;43.566;1.398;2023-04-07T07:48:47;100147.00;;;12.28;50.63
49541;BME280;35432;43.566;1.398;2023-04-07T07:51:13;100147.72;;;12.43;50.50
49541;BME280;35432;43.566;1.398;2023-04-07T07:53:38;100149.28;;;12.56;50.32
49541;BME280;35432;43.566;1.398;2023-04-07T07:56:03;100145.53;;;12.71;49.76
49541;BME280;35432;43.566;1.398;2023-04-07T07:58:29;100145.31;;;12.87;49.76
49541;BME280;35432;43.566;1.398;2023-04-07T08:00:54;100146.84;;;13.00;49.28
49541;BME280;35432;43.566;1.398;2023-04-07T08:03:20;100144.97;;;13.09;49.01
49541;BME280;35432;43.566;1.398;2023-04-07T08:05:47;100146.47;;;13.24;49.31
49541;BME280;35432;43.566;1.398;2023-04-07T08:08:13;100149.50;;;13.54;48.86
49541;BME280;35432;43.566;1.398;2023-04-07T08:10:38;100145.34;;;13.87;48.29
49541;BME280;35432;43.566;1.398;2023-04-07T08:13:04;100140.09;;;14.28;47.57
49541;BME280;35432;43.566;1.398;2023-04-07T08:15:29;100140.16;;;14.66;46.89
49541;BME280;35432;43.566;1.398;2023-04-07T08:17:55;100134.75;;;15.10;45.87
49541;BME280;35432;43.566;1.398;2023-04-07T08:20:21;100142.09;;;15.35;44.94
49541;BME280;35432;43.566;1.398;2023-04-07T08:22:47;100130.97;;;15.54;45.07
49541;BME280;35432;43.566;1.398;2023-04-07T08:25:12;100139.16;;;15.77;44.86
49541;BME280;35432;43.566;1.398;2023-04-07T08:27:38;100135.84;;;16.02;44.85
49541;BME280;35432;43.566;1.398;2023-04-07T08:30:04;100137.06;;;16.22;44.13
49541;BME280;35432;43.566;1.398;2023-04-07T08:32:40;100135.88;;;16.32;44.40
49541;BME280;35432;43.566;1.398;2023-04-07T08:35:06;100131.19;;;16.41;43.95
49541;BME280;35432;43.566;1.398;2023-04-07T08:37:33;100131.19;;;16.41;44.07
49541;BME280;35432;43.566;1.398;2023-04-07T08:39:59;100132.09;;;16.41;43.86
49541;BME280;35432;43.566;1.398;2023-04-07T08:42:31;100131.97;;;16.44;43.81
49541;BME280;35432;43.566;1.398;2023-04-07T08:44:59;100137.88;;;16.54;43.66
49541;BME280;35432;43.566;1.398;2023-04-07T08:47:27;100133.22;;;16.61;43.70
49541;BME280;35432;43.566;1.398;2023-04-07T08:49:56;100136.44;;;16.72;43.70
49541;BME280;35432;43.566;1.398;2023-04-07T08:52:32;100137.84;;;16.84;42.68
49541;BME280;35432;43.566;1.398;2023-04-07T08:54:58;100136.22;;;16.78;42.67
49541;BME280;35432;43.566;1.398;2023-04-07T08:57:29;100136.44;;;16.72;42.93
49541;BME280;35432;43.566;1.398;2023-04-07T08:59:55;100130.13;;;16.75;42.94
49541;BME280;35432;43.566;1.398;2023-04-07T09:02:22;100135.22;;;16.83;43.32
49541;BME280;35432;43.566;1.398;2023-04-07T09:04:48;100134.75;;;16.97;43.04
49541;BME280;35432;43.566;1.398;2023-04-07T09:07:13;100126.63;;;17.03;42.84
49541;BME280;35432;43.566;1.398;2023-04-07T09:09:38;100126.09;;;17.18;42.82
49541;BME280;35432;43.566;1.398;2023-04-07T09:12:05;100123.25;;;17.25;42.54
49541;BME280;35432;43.566;1.398;2023-04-07T09:14:30;100120.19;;;17.35;42.76
49541;BME280;35432;43.566;1.398;2023-04-07T09:16:56;100123.47;;;17.44;41.75
49541;BME280;35432;43.566;1.398;2023-04-07T09:19:25;100129.03;;;17.38;42.17
49541;BME280;35432;43.566;1.398;2023-04-07T09:21:52;100119.78;;;17.48;42.01
49541;BME280;35432;43.566;1.398;2023-04-07T09:24:25;100109.78;;;17.55;42.02
49541;BME280;35432;43.566;1.398;2023-04-07T09:29:32;100107.06;;;17.82;41.79
49541;BME280;35432;43.566;1.398;2023-04-07T09:31:58;100110.03;;;17.96;41.15
49541;BME280;35432;43.566;1.398;2023-04-07T09:36:54;100105.19;;;18.09;41.19
49541;BME280;35432;43.566;1.398;2023-04-07T09:39:21;100100.81;;;18.30;41.10
49541;BME280;35432;43.566;1.398;2023-04-07T09:41:46;100096.31;;;18.55;40.96
49541;BME280;35432;43.566;1.398;2023-04-07T09:44:12;100093.06;;;18.69;41.18
49541;BME280;35432;43.566;1.398;2023-04-07T09:46:51;100092.63;;;18.79;40.47
49541;BME280;35432;43.566;1.398;2023-04-07T09:49:17;100091.59;;;19.06;40.72
49541;BME280;35432;43.566;1.398;2023-04-07T09:54:35;100085.06;;;19.34;39.37
49541;BME280;35432;43.566;1.398;2023-04-07T09:57:03;100086.56;;;19.41;39.28
49541;BME280;35432;43.566;1.398;2023-04-07T09:59:29;100083.66;;;19.46;39.14
49541;BME280;35432;43.566;1.398;2023-04-07T10:01:55;100075.59;;;19.47;39.00
49541;BME280;35432;43.566;1.398;2023-04-07T10:04:23;100068.69;;;19.62;39.12
49541;BME280;35432;43.566;1.398;2023-04-07T10:06:49;100075.88;;;19.81;38.59
49541;BME280;35432;43.566;1.398;2023-04-07T10:09:15;100076.22;;;19.94;38.58
49541;BME280;35432;43.566;1.398;2023-04-07T10:11:42;100073.09;;;20.03;38.17
49541;BME280;35432;43.566;1.398;2023-04-07T10:14:09;100070.44;;;20.03;37.57
49541;BME280;35432;43.566;1.398;2023-04-07T10:16:38;100058.94;;;20.01;38.01
49541;BME280;35432;43.566;1.398;2023-04-07T10:19:07;100056.50;;;20.16;37.84
49541;BME280;35432;43.566;1.398;2023-04-07T10:21:38;100049.53;;;20.12;37.14
49541;BME280;35432;43.566;1.398;2023-04-07T10:26:34;100049.63;;;20.10;37.40
49541;BME280;35432;43.566;1.398;2023-04-07T10:29:08;100041.88;;;20.23;37.80
49541;BME280;35432;43.566;1.398;2023-04-07T10:31:36;100032.53;;;20.51;37.10
49541;BME280;35432;43.566;1.398;2023-04-07T10:34:02;100033.97;;;20.76;36.60
49541;BME280;35432;43.566;1.398;2023-04-07T10:36:27;100037.97;;;20.86;35.83
49541;BME280;35432;43.566;1.398;2023-04-07T10:41:40;100031.78;;;20.84;36.18
49541;BME280;35432;43.566;1.398;2023-04-07T10:44:07;100023.78;;;21.02;35.64
49541;BME280;35432;43.566;1.398;2023-04-07T10:47:01;100028.50;;;20.97;35.50
49541;BME280;35432;43.566;1.398;2023-04-07T10:49:27;100021.09;;;21.19;35.59
49541;BME280;35432;43.566;1.398;2023-04-07T10:54:37;100012.38;;;21.49;34.30
49541;BME280;35432;43.566;1.398;2023-04-07T10:57:09;100008.75;;;21.50;34.74
49541;BME280;35432;43.566;1.398;2023-04-07T10:59:37;100006.59;;;21.57;34.71
49541;BME280;35432;43.566;1.398;2023-04-07T11:04:38;99994.75;;;21.95;34.26
49541;BME280;35432;43.566;1.398;2023-04-07T11:07:05;99994.47;;;22.16;34.26
49541;BME280;35432;43.566;1.398;2023-04-07T11:09:30;99990.94;;;22.31;34.02
49541;BME280;35432;43.566;1.398;2023-04-07T11:11:56;99994.63;;;22.45;33.64
49541;BME280;35432;43.566;1.398;2023-04-07T11:14:29;99994.63;;;22.45;33.33
49541;BME280;35432;43.566;1.398;2023-04-07T11:16:56;99988.25;;;22.47;33.82
49541;BME280;35432;43.566;1.398;2023-04-07T11:19:22;99983.88;;;22.45;33.45
49541;BME280;35432;43.566;1.398;2023-04-07T11:21:48;99986.56;;;22.45;32.97
49541;BME280;35432;43.566;1.398;2023-04-07T11:24:39;99979.56;;;22.26;31.35
49541;BME280;35432;43.566;1.398;2023-04-07T11:27:10;99969.41;;;22.17;32.10
49541;BME280;35432;43.566;1.398;2023-04-07T11:29:36;99970.09;;;22.20;32.15
49541;BME280;35432;43.566;1.398;2023-04-07T11:32:03;99969.88;;;22.40;32.38
49541;BME280;35432;43.566;1.398;2023-04-07T11:34:29;99968.66;;;22.61;31.72
49541;BME280;35432;43.566;1.398;2023-04-07T11:36:55;99961.38;;;22.78;31.23
49541;BME280;35432;43.566;1.398;2023-04-07T11:39:24;99949.16;;;22.88;30.00
49541;BME280;35432;43.566;1.398;2023-04-07T11:41:52;99947.50;;;22.86;30.29
49541;BME280;35432;43.566;1.398;2023-04-07T11:44:18;99949.16;;;22.88;30.27
49541;BME280;35432;43.566;1.398;2023-04-07T11:46:55;99946.56;;;22.87;30.56
49541;BME280;35432;43.566;1.398;2023-04-07T11:49:21;99939.38;;;23.02;30.77
49541;BME280;35432;43.566;1.398;2023-04-07T11:51:48;99940.34;;;23.15;30.09
49541;BME280;35432;43.566;1.398;2023-04-07T11:54:21;99935.88;;;23.16;29.96
49541;BME280;35432;43.566;1.398;2023-04-07T11:56:47;99938.72;;;23.13;28.76
49541;BME280;35432;43.566;1.398;2023-04-07T11:59:23;99941.97;;;23.03;29.70
49541;BME280;35432;43.566;1.398;2023-04-07T12:01:50;99933.47;;;23.26;29.55
49541;BME280;35432;43.566;1.398;2023-04-07T12:04:16;99942.22;;;23.44;29.16
49541;BME280;35432;43.566;1.398;2023-04-07T12:06:42;99938.78;;;23.42;29.04
49541;BME280;35432;43.566;1.398;2023-04-07T12:11:50;99934.03;;;23.60;29.36
49541;BME280;35432;43.566;1.398;2023-04-07T12:14:15;99931.13;;;23.77;29.24
49541;BME280;35432;43.566;1.398;2023-04-07T12:16:40;99925.50;;;23.95;28.77
49541;BME280;35432;43.566;1.398;2023-04-07T12:19:06;99922.03;;;24.07;28.77
49541;BME280;35432;43.566;1.398;2023-04-07T12:21:32;99921.53;;;24.15;28.80
49541;BME280;35432;43.566;1.398;2023-04-07T12:23:57;99915.19;;;24.16;28.67
49541;BME280;35432;43.566;1.398;2023-04-07T12:26:22;99912.75;;;24.26;28.62
49541;BME280;35432;43.566;1.398;2023-04-07T12:28:49;99916.94;;;24.30;28.30
49541;BME280;35432;43.566;1.398;2023-04-07T12:31:15;99911.19;;;24.22;28.77
49541;BME280;35432;43.566;1.398;2023-04-07T12:33:41;99903.38;;;24.32;28.72
49541;BME280;35432;43.566;1.398;2023-04-07T12:36:06;99897.94;;;24.46;28.92
49541;BME280;35432;43.566;1.398;2023-04-07T12:38:32;99899.56;;;24.49;28.88
49541;BME280;35432;43.566;1.398;2023-04-07T12:40:57;99894.81;;;24.52;28.10
49541;BME280;35432;43.566;1.398;2023-04-07T12:43:30;99889.84;;;24.46;27.73
49541;BME280;35432;43.566;1.398;2023-04-07T12:45:56;99900.09;;;24.41;27.79
49541;BME280;35432;43.566;1.398;2023-04-07T12:48:22;99885.53;;;24.44;28.07
49541;BME280;35432;43.566;1.398;2023-04-07T12:50:48;99886.19;;;24.47;27.81
49541;BME280;35432;43.566;1.398;2023-04-07T12:53:14;99883.41;;;24.49;27.88
49541;BME280;35432;43.566;1.398;2023-04-07T12:55:39;99875.75;;;24.56;27.91
49541;BME280;35432;43.566;1.398;2023-04-07T12:58:06;99870.38;;;24.69;27.66
49541;BME280;35432;43.566;1.398;2023-04-07T13:00:31;99871.38;;;24.80;27.33
49541;BME280;35432;43.566;1.398;2023-04-07T13:02:57;99868.91;;;24.90;27.44
49541;BME280;35432;43.566;1.398;2023-04-07T13:05:22;99862.31;;;24.94;26.62
49541;BME280;35432;43.566;1.398;2023-04-07T13:07:48;99870.75;;;24.90;26.79
49541;BME280;35432;43.566;1.398;2023-04-07T13:10:13;99859.75;;;24.93;27.02
49541;BME280;35432;43.566;1.398;2023-04-07T13:12:39;99854.59;;;25.03;26.73
49541;BME280;35432;43.566;1.398;2023-04-07T13:15:05;99853.28;;;25.08;27.10
49541;BME280;35432;43.566;1.398;2023-04-07T13:17:31;99856.06;;;25.07;27.05